Estación Meteorológica Peña el Pijo (Robertgarden) [ 06/25/18 14:04:24 CEST ]

Fecha Hora Presion(HPa) Temp (°C) Humedad % Rocio (°C) Viento ( m/s) Direccion Lluvia 1Hora(mm) Lluvia 24H(mm) LLuvia Total(mm)
2018-Jun-15 01:01:52 1009.500 11.9 58 3.9         266.25
2018-Jun-15 02:01:34 1009.200 11.3 59 3.5         266.25
2018-Jun-15 03:01:42 1009.100 10.5 62 3.5         266.25
2018-Jun-15 04:03:13 1008.800 10.2 63 3.4         266.25
2018-Jun-15 05:01:43 1008.700 9.8 66 3.7         266.25
2018-Jun-15 06:01:43 1008.600 9.2 68 3.6         266.25
2018-Jun-15 07:01:36 1008.600 8.9 69 3.5         266.25
2018-Jun-15 08:01:34 1008.800 12.2 70 6.9         266.25
2018-Jun-15 09:01:47 1008.700 18.1 57 9.4         266.25
2018-Jun-15 10:01:39 1008.700 24.7 43 11.2         266.25
2018-Jun-15 11:01:45 1008.600 26.6 34 9.4         266.25
2018-Jun-15 12:01:24 1008.600 28.3 27 7.3         266.25
2018-Jun-15 13:01:42 1008.400 30.1 26 8.3         266.25
2018-Jun-15 14:01:38 1008.300 30.4 23 6.7 2.8 SSE     266.25
2018-Jun-15 15:01:50 1008.000 31.9 22 7.4         266.25
2018-Jun-15 16:01:53 1007.400 32.5 22 7.9 1.8 S     266.25
2018-Jun-15 17:01:55 1007.300 33.3 24 9.8         266.25
2018-Jun-15 18:01:43 1007.200 32.3 24 8.9 1.8 S     266.25
2018-Jun-15 19:01:51 1006.800 31.1 26 9.1         266.25
2018-Jun-15 20:01:37 1007.100 28.3 28 7.9         266.25
2018-Jun-15 21:01:39 1007.500 23.5 35 7.0         266.25
2018-Jun-15 22:01:56 1008.100 21.6 43 8.4         266.25
2018-Jun-15 23:01:49 1008.700 17.9 54 8.4         266.25

Temperatura Máxima:33°    Temperatura Mínima:
Presión Máxima:1009.500 Hpa    Presión Mínima:1006.800 Hpa


Volver